createdAt,value
2018-01-10T00:00:18.563Z,96678.05
2018-01-10T00:02:46.429Z,96685.22
2018-01-10T00:05:14.287Z,96674.08
2018-01-10T00:07:44.787Z,96670.41
2018-01-10T00:10:21.386Z,96678.36
2018-01-10T00:12:51.963Z,96668.30
2018-01-10T00:15:24.917Z,96669.45
2018-01-10T00:17:52.777Z,96668.21
2018-01-10T00:20:20.655Z,96674.12
2018-01-10T00:22:50.171Z,96681.34
2018-01-10T00:25:18.027Z,96685.54
2018-01-10T00:27:47.485Z,96691.38
2018-01-10T00:30:19.919Z,96695.99
2018-01-10T00:32:49.585Z,96700.70
2018-01-10T00:35:19.754Z,96705.86
2018-01-10T00:37:49.317Z,96699.25
2018-01-10T00:40:17.199Z,96698.91
2018-01-10T00:42:46.018Z,96706.13
2018-01-10T00:45:14.608Z,96698.27
2018-01-10T00:47:44.073Z,96690.75
2018-01-10T00:50:12.697Z,96679.52
2018-01-10T00:52:42.238Z,96676.97
2018-01-10T00:55:10.446Z,96668.20
2018-01-10T00:57:38.188Z,96669.41
2018-01-10T01:00:08.866Z,96665.55
2018-01-10T01:02:41.375Z,96665.03
2018-01-10T01:05:09.243Z,96672.42
2018-01-10T01:07:37.092Z,96667.80
2018-01-10T01:10:04.871Z,96680.27
2018-01-10T01:12:32.848Z,96676.00
2018-01-10T01:15:00.667Z,96673.91
2018-01-10T01:17:29.407Z,96678.02
2018-01-10T01:19:59.734Z,96688.87
2018-01-10T01:22:27.597Z,96688.86
2018-01-10T01:24:55.760Z,96699.27
2018-01-10T01:27:25.344Z,96702.89
2018-01-10T01:29:56.406Z,96701.69
2018-01-10T01:32:24.183Z,96685.83
2018-01-10T01:34:51.968Z,96696.68
2018-01-10T01:37:21.666Z,96704.72
2018-01-10T01:39:52.005Z,96701.87
2018-01-10T01:42:19.880Z,96694.36
2018-01-10T01:44:47.737Z,96688.09
2018-01-10T01:47:23.295Z,96675.52
2018-01-10T01:49:51.146Z,96674.18
2018-01-10T01:52:19.134Z,96672.88
2018-01-10T01:54:47.008Z,96676.67
2018-01-10T01:57:14.874Z,96673.13
2018-01-10T01:59:44.364Z,96675.11
2018-01-10T02:02:12.150Z,96682.95
2018-01-10T02:04:40.006Z,96676.48
2018-01-10T02:07:08.500Z,96668.09
2018-01-10T02:09:36.266Z,96670.51
2018-01-10T02:12:04.122Z,96665.73
2018-01-10T02:14:33.473Z,96676.05
2018-01-10T02:17:03.026Z,96681.88
2018-01-10T02:19:32.618Z,96682.61
2018-01-10T02:22:01.247Z,96677.22
2018-01-10T02:24:32.063Z,96669.70
2018-01-10T02:27:01.082Z,96677.59
2018-01-10T02:29:28.938Z,96671.73
2018-01-10T02:31:59.282Z,96672.16
2018-01-10T02:34:27.147Z,96674.31
2018-01-10T02:36:54.916Z,96675.58
2018-01-10T02:39:23.418Z,96677.65
2018-01-10T02:41:51.243Z,96672.69
2018-01-10T02:44:20.728Z,96671.91
2018-01-10T02:46:51.280Z,96671.48
2018-01-10T02:49:19.156Z,96665.98
2018-01-10T02:51:47.215Z,96668.83
2018-01-10T02:54:21.412Z,96673.66
2018-01-10T02:56:50.142Z,96685.69
2018-01-10T02:59:18.746Z,96682.33
2018-01-10T03:01:46.724Z,96683.95
2018-01-10T03:04:16.206Z,96686.02
2018-01-10T03:06:44.086Z,96676.70
2018-01-10T03:09:13.516Z,96663.11
2018-01-10T03:11:43.214Z,96661.28
2018-01-10T03:14:11.184Z,96665.14
2018-01-10T03:16:39.027Z,96667.30
2018-01-10T03:19:09.482Z,96661.09
2018-01-10T03:21:37.236Z,96658.98
2018-01-10T03:24:05.742Z,96658.58
2018-01-10T03:26:34.216Z,96646.95
2018-01-10T03:29:04.056Z,96650.35
2018-01-10T03:31:38.760Z,96668.79
2018-01-10T03:34:14.310Z,96673.75
2018-01-10T03:36:43.864Z,96682.80
2018-01-10T03:39:14.389Z,96684.30
2018-01-10T03:41:46.059Z,96686.75
2018-01-10T03:44:13.976Z,96692.30
2018-01-10T03:46:41.733Z,96678.66
2018-01-10T03:49:09.503Z,96680.78
2018-01-10T03:51:37.378Z,96676.20
2018-01-10T03:54:10.017Z,96674.91
2018-01-10T03:56:37.916Z,96677.31
2018-01-10T03:59:10.824Z,96680.30
2018-01-10T04:01:40.825Z,96681.17
2018-01-10T04:04:09.832Z,96678.28
2018-01-10T04:06:37.808Z,96676.64
2018-01-10T04:09:11.026Z,96688.06
2018-01-10T04:11:39.176Z,96684.87
2018-01-10T04:14:06.922Z,96687.14
2018-01-10T04:16:36.502Z,96682.75
2018-01-10T04:21:44.528Z,96688.70
2018-01-10T04:24:15.860Z,96680.28
2018-01-10T04:26:44.516Z,96676.97
2018-01-10T04:29:14.106Z,96683.70
2018-01-10T04:31:42.696Z,96685.05
2018-01-10T04:34:10.576Z,96686.79
2018-01-10T04:36:41.111Z,96689.00
2018-01-10T04:39:08.898Z,96684.48
2018-01-10T04:41:36.737Z,96684.24
2018-01-10T04:44:08.394Z,96689.30
2018-01-10T04:46:36.694Z,96694.70
2018-01-10T04:49:04.547Z,96699.64
2018-01-10T04:51:32.315Z,96701.81
2018-01-10T04:54:00.222Z,96694.88
2018-01-10T04:56:29.785Z,96682.12
2018-01-10T04:58:57.766Z,96679.72
2018-01-10T05:01:28.892Z,96680.21
2018-01-10T05:04:00.413Z,96678.96
2018-01-10T05:06:29.924Z,96672.69
2018-01-10T05:08:57.748Z,96683.43
2018-01-10T05:11:26.365Z,96675.83
2018-01-10T05:13:54.910Z,96669.52
2018-01-10T05:16:23.195Z,96667.34
2018-01-10T05:18:50.965Z,96655.56
2018-01-10T05:21:18.835Z,96656.33
2018-01-10T05:23:46.775Z,96654.13
2018-01-10T05:26:14.574Z,96652.24
2018-01-10T05:28:44.193Z,96647.14
2018-01-10T05:31:12.046Z,96644.15
2018-01-10T05:33:44.100Z,96647.37
2018-01-10T05:36:11.887Z,96641.89
2018-01-10T05:38:42.333Z,96649.83
2018-01-10T05:43:44.334Z,96641.80
2018-01-10T05:46:12.154Z,96643.33
2018-01-10T05:48:39.936Z,96645.98
2018-01-10T05:51:07.810Z,96645.26
2018-01-10T05:53:35.668Z,96657.39
2018-01-10T05:56:03.458Z,96652.91
2018-01-10T05:58:31.300Z,96658.06
2018-01-10T06:01:00.121Z,96656.09
2018-01-10T06:03:27.938Z,96653.73
2018-01-10T06:05:55.850Z,96650.07
2018-01-10T06:08:25.503Z,96651.38
2018-01-10T06:10:53.316Z,96656.80
2018-01-10T06:13:21.811Z,96658.93
2018-01-10T06:15:49.667Z,96660.57
2018-01-10T06:18:20.822Z,96662.11
2018-01-10T06:20:48.588Z,96658.25
2018-01-10T06:25:53.864Z,96651.03
2018-01-10T06:28:21.729Z,96643.83
2018-01-10T06:30:51.299Z,96656.13
2018-01-10T06:35:55.248Z,96650.50
2018-01-10T06:38:23.950Z,96655.51
2018-01-10T06:40:52.741Z,96644.34
2018-01-10T06:43:20.543Z,96641.46
2018-01-10T06:45:56.438Z,96644.06
2018-01-10T06:48:27.049Z,96648.30
2018-01-10T06:50:56.262Z,96651.28
2018-01-10T06:53:24.142Z,96649.64
2018-01-10T06:55:52.044Z,96655.50
2018-01-10T06:58:20.592Z,96659.31
2018-01-10T07:00:50.045Z,96660.22
2018-01-10T07:03:25.316Z,96655.66
2018-01-10T07:05:53.325Z,96655.71
2018-01-10T07:08:22.233Z,96657.00
2018-01-10T07:10:50.008Z,96661.19
2018-01-10T07:13:17.774Z,96661.14
2018-01-10T07:15:45.649Z,96663.73
2018-01-10T07:18:13.619Z,96664.90
2018-01-10T07:20:41.359Z,96664.12
2018-01-10T07:23:09.154Z,96673.89
2018-01-10T07:25:38.165Z,96673.23
2018-01-10T07:28:05.995Z,96672.08
2018-01-10T07:30:35.675Z,96672.64
2018-01-10T07:33:03.696Z,96670.63
2018-01-10T07:35:31.488Z,96675.63
2018-01-10T07:37:59.447Z,96669.33
2018-01-10T07:40:28.983Z,96677.16
2018-01-10T07:42:59.335Z,96674.23
2018-01-10T07:45:27.232Z,96671.30
2018-01-10T07:47:55.323Z,96665.53
2018-01-10T07:50:23.811Z,96663.51
2018-01-10T07:52:51.671Z,96662.83
2018-01-10T07:55:19.537Z,96668.36
2018-01-10T07:57:47.396Z,96672.75
2018-01-10T08:00:15.269Z,96674.09
2018-01-10T08:02:43.240Z,96670.00
2018-01-10T08:05:13.748Z,96678.04
2018-01-10T08:07:43.087Z,96673.94
2018-01-10T08:10:11.985Z,96676.50
2018-01-10T08:12:40.055Z,96674.91
2018-01-10T08:15:09.814Z,96677.45
2018-01-10T08:17:39.628Z,96674.13
2018-01-10T08:20:09.341Z,96675.44
2018-01-10T08:22:37.153Z,96682.59
2018-01-10T08:25:06.767Z,96683.85
2018-01-10T08:27:36.367Z,96690.16
2018-01-10T08:32:42.861Z,96681.68
2018-01-10T08:35:11.681Z,96687.27
2018-01-10T08:37:42.133Z,96682.78
2018-01-10T08:40:18.729Z,96688.36
2018-01-10T08:42:46.651Z,96693.65
2018-01-10T08:45:14.394Z,96691.31
2018-01-10T08:47:44.033Z,96687.17
2018-01-10T08:50:13.736Z,96688.09
2018-01-10T08:52:41.606Z,96683.26
2018-01-10T08:55:12.550Z,96688.58
2018-01-10T08:57:40.559Z,96683.88
2018-01-10T09:00:08.387Z,96688.47
2018-01-10T09:02:36.245Z,96691.23
2018-01-10T09:05:04.036Z,96689.51
2018-01-10T09:07:32.728Z,96689.42
2018-01-10T09:10:00.795Z,96700.27
2018-01-10T09:12:31.285Z,96693.50
2018-01-10T09:15:01.554Z,96693.47
2018-01-10T09:17:32.489Z,96693.87
2018-01-10T09:20:01.944Z,96699.22
2018-01-10T09:22:29.740Z,96691.13
2018-01-10T09:24:57.608Z,96690.86
2018-01-10T09:27:25.463Z,96694.31
2018-01-10T09:29:54.086Z,96692.06
2018-01-10T09:32:21.946Z,96690.25
2018-01-10T09:34:52.478Z,96695.17
2018-01-10T09:37:21.068Z,96684.44
2018-01-10T09:39:48.971Z,96690.02
2018-01-10T09:42:16.666Z,96675.69
2018-01-10T09:44:46.100Z,96688.76
2018-01-10T09:47:15.742Z,96677.59
2018-01-10T09:49:43.781Z,96673.53
2018-01-10T09:52:13.316Z,96671.16
2018-01-10T09:54:41.322Z,96666.64
2018-01-10T09:57:12.592Z,96660.84
2018-01-10T09:59:40.413Z,96657.61
2018-01-10T10:02:09.716Z,96656.53
2018-01-10T10:04:39.569Z,96652.92
2018-01-10T10:07:07.397Z,96647.17
2018-01-10T10:09:35.262Z,96644.03
2018-01-10T10:12:03.233Z,96642.91
2018-01-10T10:14:31.098Z,96640.84
2018-01-10T10:16:58.880Z,96637.47
2018-01-10T10:19:26.649Z,96638.40
2018-01-10T10:21:54.512Z,96635.16
2018-01-10T10:24:22.363Z,96629.05
2018-01-10T10:26:51.495Z,96623.38
2018-01-10T10:29:21.198Z,96620.25
2018-01-10T10:31:50.810Z,96617.91
2018-01-10T10:34:22.560Z,96621.02
2018-01-10T10:36:51.173Z,96624.53
2018-01-10T10:39:19.100Z,96621.33
2018-01-10T10:41:48.957Z,96622.34
2018-01-10T10:44:20.078Z,96620.79
2018-01-10T10:46:49.680Z,96606.63
2018-01-10T10:49:17.663Z,96604.76
2018-01-10T10:51:45.562Z,96600.71
2018-01-10T10:54:15.084Z,96595.86
2018-01-10T10:56:42.933Z,96587.14
2018-01-10T10:59:11.068Z,96590.95
2018-01-10T11:01:48.359Z,96584.34
2018-01-10T11:04:23.308Z,96577.74
2018-01-10T11:06:51.019Z,96576.13
2018-01-10T11:09:19.129Z,96575.38
2018-01-10T11:11:46.840Z,96568.71
2018-01-10T11:14:14.660Z,96569.22
2018-01-10T11:16:42.545Z,96561.65
2018-01-10T11:19:17.006Z,96567.19
2018-01-10T11:21:44.951Z,96557.96
2018-01-10T11:24:13.136Z,96547.12
2018-01-10T11:26:44.361Z,96550.11
2018-01-10T11:29:17.052Z,96543.94
2018-01-10T11:31:44.909Z,96550.77
2018-01-10T11:34:12.892Z,96537.30
2018-01-10T11:36:42.824Z,96535.63
2018-01-10T11:39:12.321Z,96537.34
2018-01-10T11:41:40.199Z,96528.58
2018-01-10T11:44:08.649Z,96531.59
2018-01-10T11:46:36.454Z,96529.56
2018-01-10T11:49:06.973Z,96525.42
2018-01-10T11:51:34.775Z,96517.52
2018-01-10T11:56:30.490Z,96512.56
2018-01-10T11:58:58.339Z,96507.96
2018-01-10T12:01:33.340Z,96504.20
2018-01-10T12:04:01.884Z,96503.36
2018-01-10T12:06:29.632Z,96493.26
2018-01-10T12:08:57.413Z,96491.61
2018-01-10T12:11:25.388Z,96491.64
2018-01-10T12:13:55.000Z,96490.47
2018-01-10T12:16:24.455Z,96485.00
2018-01-10T12:18:54.003Z,96485.47
2018-01-10T12:21:23.764Z,96479.63
2018-01-10T12:23:53.208Z,96473.36
2018-01-10T12:26:23.016Z,96471.23
2018-01-10T12:28:53.095Z,96465.34
2018-01-10T12:31:20.927Z,96469.13
2018-01-10T12:33:50.780Z,96468.31
2018-01-10T12:36:20.103Z,96461.18
2018-01-10T12:38:48.850Z,96454.48
2018-01-10T12:41:18.953Z,96452.02
2018-01-10T12:43:48.558Z,96450.36
2018-01-10T12:46:16.476Z,96454.55
2018-01-10T12:48:44.337Z,96462.09
2018-01-10T12:51:13.948Z,96452.36
2018-01-10T12:53:41.794Z,96454.45
2018-01-10T12:56:12.960Z,96449.02
2018-01-10T12:58:48.400Z,96449.05
2018-01-10T13:01:16.225Z,96444.86
2018-01-10T13:03:44.034Z,96445.28
2018-01-10T13:06:12.470Z,96445.67
2018-01-10T13:08:40.373Z,96441.82
2018-01-10T13:11:15.839Z,96444.60
2018-01-10T13:13:43.820Z,96440.44
2018-01-10T13:16:13.428Z,96438.15
2018-01-10T13:18:41.372Z,96443.92
2018-01-10T13:21:13.668Z,96442.67
2018-01-10T13:23:43.298Z,96439.72
2018-01-10T13:26:14.874Z,96444.31
2018-01-10T13:28:44.969Z,96450.60
2018-01-10T13:31:14.736Z,96448.43
2018-01-10T13:33:47.326Z,96451.77
2018-01-10T13:36:16.956Z,96447.54
2018-01-10T13:38:45.654Z,96489.84
2018-01-10T13:41:13.519Z,96443.97
2018-01-10T13:43:45.666Z,96443.47
2018-01-10T13:46:16.160Z,96440.51
2018-01-10T13:48:44.080Z,96438.33
2018-01-10T13:51:13.686Z,96446.28
2018-01-10T13:53:43.846Z,96449.96
2018-01-10T13:56:11.774Z,96455.77
2018-01-10T13:58:42.267Z,96454.00
2018-01-10T14:01:11.833Z,96460.18
2018-01-10T14:03:41.776Z,96457.10
2018-01-10T14:06:09.640Z,96455.73
2018-01-10T14:08:39.550Z,96462.37
2018-01-10T14:11:07.702Z,96466.91
2018-01-10T14:16:09.803Z,96470.66
2018-01-10T14:18:37.783Z,96475.11
2018-01-10T14:21:05.653Z,96484.73
2018-01-10T14:23:33.505Z,96480.93
2018-01-10T14:26:01.346Z,96485.08
2018-01-10T14:34:56.531Z,96481.37
2018-01-10T14:37:26.230Z,96485.38
2018-01-10T14:39:54.192Z,96481.48
2018-01-10T14:42:22.544Z,96476.43
2018-01-10T14:44:51.329Z,96480.98
2018-01-10T14:47:20.930Z,96474.64
2018-01-10T14:49:50.537Z,96482.42
2018-01-10T14:52:20.173Z,96478.50
2018-01-10T14:54:51.936Z,96477.13
2018-01-10T14:57:22.065Z,96482.11
2018-01-10T14:59:49.941Z,96481.59
2018-01-10T15:02:18.254Z,96482.76
2018-01-10T15:04:48.771Z,96481.84
2018-01-10T15:07:33.252Z,96482.24
2018-01-10T15:10:01.143Z,96478.33
2018-01-10T15:12:30.613Z,96476.36
2018-01-10T15:15:00.237Z,96477.41
2018-01-10T15:17:37.879Z,96480.13
2018-01-10T15:20:06.775Z,96477.06
2018-01-10T15:22:34.844Z,96476.58
2018-01-10T15:25:03.535Z,96472.77
2018-01-10T15:27:31.399Z,96481.57
2018-01-10T15:29:59.275Z,96485.41
2018-01-10T15:32:33.547Z,96485.47
2018-01-10T15:35:03.035Z,96487.64
2018-01-10T15:37:30.955Z,96486.05
2018-01-10T15:39:58.950Z,96491.54
2018-01-10T15:42:28.431Z,96490.38
2018-01-10T15:44:56.319Z,96486.17
2018-01-10T15:47:32.369Z,96494.15
2018-01-10T15:50:00.247Z,96490.74
2018-01-10T15:52:28.221Z,96495.34
2018-01-10T15:54:56.235Z,96505.36
2018-01-10T15:57:24.058Z,96494.78
2018-01-10T15:59:51.927Z,96501.77
2018-01-10T16:02:20.396Z,96504.65
2018-01-10T16:04:48.392Z,96506.63
2018-01-10T16:07:16.969Z,96511.16
2018-01-10T16:09:44.757Z,96510.21
2018-01-10T16:12:12.992Z,96511.50
2018-01-10T16:14:40.879Z,96518.21
2018-01-10T16:17:10.503Z,96514.02
2018-01-10T16:19:40.217Z,96516.00
2018-01-10T16:22:08.180Z,96516.79
2018-01-10T16:24:37.094Z,96514.70
2018-01-10T16:27:04.846Z,96517.19
2018-01-10T16:29:32.691Z,96519.13
2018-01-10T16:32:00.691Z,96525.31
2018-01-10T16:34:28.438Z,96518.47
2018-01-10T16:39:32.487Z,96519.19
2018-01-10T16:42:00.567Z,96517.14
2018-01-10T16:44:28.474Z,96519.59
2018-01-10T16:46:58.020Z,96523.78
2018-01-10T16:49:38.825Z,96524.61
2018-01-10T16:52:08.352Z,96529.09
2018-01-10T16:54:38.975Z,96534.88
2018-01-10T16:57:08.626Z,96537.42
2018-01-10T16:59:38.691Z,96541.59
2018-01-10T17:02:06.904Z,96541.95
2018-01-10T17:04:42.378Z,96549.05
2018-01-10T17:07:10.378Z,96543.59
2018-01-10T17:09:38.363Z,96530.97
2018-01-10T17:12:06.934Z,96538.50
2018-01-10T17:14:39.851Z,96540.98
2018-01-10T17:17:09.382Z,96546.79
2018-01-10T17:19:38.115Z,96547.61
2018-01-10T17:22:06.710Z,96546.72
2018-01-10T17:24:38.467Z,96547.44
2018-01-10T17:27:15.556Z,96551.56
2018-01-10T17:29:49.553Z,96553.53
2018-01-10T17:32:20.429Z,96569.53
2018-01-10T17:34:51.841Z,96563.28
2018-01-10T17:37:22.568Z,96562.42
2018-01-10T17:39:50.556Z,96565.36
2018-01-10T17:42:18.319Z,96556.16
2018-01-10T17:44:52.187Z,96557.02
2018-01-10T17:47:26.268Z,96552.45
2018-01-10T17:49:58.098Z,96552.89
2018-01-10T17:52:25.957Z,96553.34
2018-01-10T17:54:53.744Z,96555.44
2018-01-10T17:57:22.508Z,96559.23
2018-01-10T17:59:52.996Z,96551.23
2018-01-10T18:02:21.037Z,96556.19
2018-01-10T18:07:23.286Z,96570.97
2018-01-10T18:09:52.776Z,96567.27
2018-01-10T18:12:27.248Z,96564.00
2018-01-10T18:14:57.873Z,96564.41
2018-01-10T18:17:38.648Z,96565.27
2018-01-10T18:20:06.516Z,96566.13
2018-01-10T18:22:36.199Z,96561.53
2018-01-10T18:25:04.916Z,96570.32
2018-01-10T18:27:42.976Z,96571.94
2018-01-10T18:30:12.651Z,96566.45
2018-01-10T18:32:44.186Z,96572.72
2018-01-10T18:35:12.798Z,96578.61
2018-01-10T18:37:41.358Z,96572.22
2018-01-10T18:40:11.085Z,96572.25
2018-01-10T18:42:46.104Z,96566.38
2018-01-10T18:45:14.802Z,96567.20
2018-01-10T18:47:49.104Z,96567.16
2018-01-10T18:50:18.521Z,96567.95
2018-01-10T18:52:46.383Z,96566.27
2018-01-10T18:55:14.198Z,96561.24
2018-01-10T18:57:42.080Z,96557.05
2018-01-10T19:00:13.572Z,96561.64
2018-01-10T19:02:42.448Z,96558.70
2018-01-10T19:07:44.642Z,96557.33
2018-01-10T19:10:13.459Z,96550.16
2018-01-10T19:12:42.162Z,96550.98
2018-01-10T19:15:10.826Z,96552.16
2018-01-10T19:17:38.915Z,96550.44
2018-01-10T19:20:06.991Z,96555.06
2018-01-10T19:22:36.729Z,96547.06
2018-01-10T19:25:06.573Z,96546.21
2018-01-10T19:27:34.583Z,96550.80
2018-01-10T19:30:02.684Z,96544.52
2018-01-10T19:32:31.557Z,96543.27
2018-01-10T19:35:00.238Z,96547.50
2018-01-10T19:37:28.413Z,96549.19
2018-01-10T19:40:02.625Z,96555.89
2018-01-10T19:42:30.812Z,96550.77
2018-01-10T19:44:59.824Z,96555.35
2018-01-10T19:47:44.275Z,96555.75
2018-01-10T19:50:13.906Z,96559.19
2018-01-10T19:52:43.097Z,96564.28
2018-01-10T19:55:12.830Z,96565.19
2018-01-10T19:57:41.702Z,96568.09
2018-01-10T20:00:09.901Z,96565.86
2018-01-10T20:02:47.628Z,96559.11
2018-01-10T20:05:19.409Z,96556.96
2018-01-10T20:07:47.815Z,96561.83
2018-01-10T20:10:26.352Z,96557.99
2018-01-10T20:12:54.586Z,96554.66
2018-01-10T20:15:24.898Z,96556.66
2018-01-10T20:17:54.749Z,96566.62
2018-01-10T20:20:27.001Z,96559.45
2018-01-10T20:22:55.073Z,96558.16
2018-01-10T20:25:25.025Z,96558.12
2018-01-10T20:27:53.264Z,96570.70
2018-01-10T20:30:27.885Z,96563.09
2018-01-10T20:32:58.521Z,96553.84
2018-01-10T20:35:27.499Z,96555.42
2018-01-10T20:37:59.273Z,96557.34
2018-01-10T20:40:27.554Z,96556.84
2018-01-10T20:42:57.274Z,96559.85
2018-01-10T20:45:25.348Z,96566.52
2018-01-10T20:47:54.941Z,96563.93
2018-01-10T20:50:23.041Z,96565.53
2018-01-10T20:52:51.121Z,96569.70
2018-01-10T20:55:19.278Z,96572.55
2018-01-10T20:57:47.344Z,96573.34
2018-01-10T21:00:15.532Z,96564.17
2018-01-10T21:02:43.602Z,96565.02
2018-01-10T21:05:12.487Z,96574.08
2018-01-10T21:07:44.373Z,96566.13
2018-01-10T21:10:14.182Z,96565.73
2018-01-10T21:12:42.246Z,96560.33
2018-01-10T21:15:10.201Z,96561.03
2018-01-10T21:17:38.293Z,96560.23
2018-01-10T21:20:06.277Z,96560.86
2018-01-10T21:22:34.245Z,96563.76
2018-01-10T21:25:02.232Z,96567.48
2018-01-10T21:27:31.315Z,96567.12
2018-01-10T21:30:01.022Z,96567.01
2018-01-10T21:32:37.033Z,96570.50
2018-01-10T21:35:06.960Z,96578.45
2018-01-10T21:37:41.411Z,96573.44
2018-01-10T21:40:10.108Z,96573.40
2018-01-10T21:42:43.769Z,96580.92
2018-01-10T21:45:11.604Z,96577.47
2018-01-10T21:47:45.881Z,96584.09
2018-01-10T21:50:16.536Z,96581.53
2018-01-10T21:52:44.500Z,96580.28
2018-01-10T21:55:12.782Z,96574.05
2018-01-10T21:57:48.423Z,96579.50
2018-01-10T22:00:16.301Z,96587.20
2018-01-10T22:02:45.296Z,96588.34
2018-01-10T22:05:13.142Z,96589.38
2018-01-10T22:07:43.968Z,96589.67
2018-01-10T22:13:03.582Z,96590.07
2018-01-10T22:15:33.057Z,96589.59
2018-01-10T22:18:00.947Z,96591.11
2018-01-10T22:20:28.728Z,96586.91
2018-01-10T22:22:58.598Z,96588.90
2018-01-10T22:25:27.230Z,96590.55
2018-01-10T22:27:55.108Z,96583.03
2018-01-10T22:30:22.982Z,96586.39
2018-01-10T22:32:52.646Z,96588.83
2018-01-10T22:35:29.023Z,96584.67
2018-01-10T22:37:59.687Z,96582.56
2018-01-10T22:40:33.479Z,96584.20
2018-01-10T22:43:02.092Z,96584.58
2018-01-10T22:45:30.066Z,96584.93
2018-01-10T22:47:58.019Z,96585.80
2018-01-10T22:50:25.882Z,96580.83
2018-01-10T22:52:53.762Z,96587.47
2018-01-10T22:55:23.362Z,96583.63
2018-01-10T22:57:51.453Z,96584.80
2018-01-10T23:00:27.393Z,96584.80
2018-01-10T23:02:57.974Z,96586.57
2018-01-10T23:05:25.833Z,96592.66
2018-01-10T23:07:53.616Z,96590.16
2018-01-10T23:10:31.544Z,96590.89
2018-01-10T23:12:59.642Z,96591.23
2018-01-10T23:15:27.518Z,96586.62
2018-01-10T23:17:55.367Z,96593.01
2018-01-10T23:20:23.444Z,96593.60
2018-01-10T23:22:51.323Z,96589.67
2018-01-10T23:25:22.167Z,96593.18
2018-01-10T23:27:50.003Z,96594.37
2018-01-10T23:30:22.724Z,96594.16
2018-01-10T23:32:50.615Z,96591.22
2018-01-10T23:35:20.236Z,96597.09
2018-01-10T23:37:50.531Z,96589.48
2018-01-10T23:40:26.849Z,96586.51
2018-01-10T23:42:57.359Z,96588.67
2018-01-10T23:45:25.271Z,96587.86
2018-01-10T23:47:55.645Z,96590.02
2018-01-10T23:50:24.918Z,96589.58
2018-01-10T23:52:52.683Z,96588.63
2018-01-10T23:55:21.267Z,96585.27
2018-01-10T23:57:49.126Z,96591.62
